Terminal Aerodrome Forecast
Issued by NWS Charleston, WV

Current Version | Previous Version | Graphics & Text | Print | Product List | Glossary On
Versions: 1 2 3 4 5 6 7 8 9 10 11 12 13 14 15 16 17 18 19 20 21 22
000
FTUS41 KRLX 160300 AAA
TAFBKW
TAF AMD
KBKW 160308Z 1603/1624 13010KT P6SM OVC080
     FM160500 13014G22KT P6SM OVC060
     FM161200 15014G25KT P6SM -SHRA OVC045
     FM161900 14011G18KT P6SM OVC250=

USA.gov is the U.S. government's official web portal to all federal, state and local government web resources and services.